Aérodrome :
LOGIN :

S'inscrire | Disclaimer

   EN    FR    IT 

 










Légende :    VFR   VFR Marginal   IFR   IFR Intensif   IFR Très Intensif
Visi : 
Plafond : 
>= 8 km
>= 3000ft
5 à 8 km
1000 à 3000 ft
1500m à 5 km
500 à 1000 ft
800 à 1500m
200 à 500 ft
< 800m
< 200 ft
Symboles :   Orages  Brouillard  Fortes neiges  Fortes précipitations  Vent > 20 kt
SIGMETs :   Divers  Orages  Givrage  Turbulence  Onde Orograph.  Cendres Volcan.






- Altitude de l'aérodrome : 935 ft


EBFS - Florennes

DERNIER METAR :
  • 272125Z AUTO 29007KT 9999 FEW036/// BKN095/// BKN110/// 01/M00 Q1011 BLU

METARs EXPIRÉS :
  • 272055Z AUTO 29009KT 9999 FEW033/// BKN090/// 01/00 Q1010 BLU
  • 272025Z AUTO 29009KT 9999 FEW014/// 01/00 Q1009 BLU
  • 272013Z AUTO 30010KT 9999 FEW011/// SCT042/// BKN140/// 02/00 Q1009 BLU
  • 271955Z AUTO 30010KT 9999 FEW010/// SCT014/// BKN120/// 02/01 Q1008 GRN
  • 271855Z AUTO 31013KT 9999 -RA FEW005/// SCT007/// BKN009/// 01/01 Q1006 GRN

TAF TAF EBFS
Valide du 27 à 19h jusqu'au 28 à 07h UTC


271541Z 2719/2807 32010G22KT 9999 SCT012 BKN020
TEMPO 2719/2721 4000 -SHRASN SCT007 BKN015
BECMG 2801/2803 26008KT
BECMG 2805/2807 21008KT



MET'MAP, la Météo Aéronautique d'un coup d'oeil ! - Copyright ORBIFLY Décembre 2007 - Disclaimer

ORBIFLY MET'MAP TEAM :

Programmation & Développement : Alexandra Zaïnal
Sur une idée originale de : Baudouin d'Aumeries
Assistance à la programmation : Marc-Olivier Méhu
Soutien technique & logistique : Manuel Goepfert

Contact : metmap@orbifly.com




SOURCES & CREDITS :

   NOAA